Udo Maru — JM6522 — position and weather

sailwx.info

Track history (hours):
 
Tides and Currents Weather Stations Pressure Air Temp Water Temp Dewpoint Dewpoint Depression Visibility Wind Speed Wind Dir Waves Ship Positions

Udo Maru

Last reported at 2015-Jul-04 18:33 UTC. Time now 2015-Jul-04 18:58 UTC.
Position N 34°35' E 135°27'.

Length 87 m; draft 4.9 m.

Type: Ship (hazmat cat A). MMSI: 431600499.

Date/timePositionNaut miles runAvg speedWind from/ knotsBaromVisibWave heightAir tempDewpointWater temp
2015-Jul-04 18:33N 34°35' E 135°27'7 6.7
2015-Jul-04 17:33N 34°34' E 135°19'1111.2
2015-Jul-04 16:33N 34°26' E 135°10'1110.6
2015-Jul-04 15:29N 34°18' E 134°60'1111.7
2015-Jul-04 14:33N 34°07' E 135°00'  
2015-Jul-02 04:33N 34°59' E 139°32'1010.4
2015-Jul-02 03:33N 35°06' E 139°41'1010.0
2015-Jul-02 02:34N 35°15' E 139°46'1110.6
2015-Jul-02 01:33N 35°25' E 139°43'5 4.7
2015-Jul-02 00:26N 35°25' E 139°50'0 0.0
2015-Jul-01 23:32N 35°25' E 139°50'0 0.0
2015-Jul-01 22:32N 35°25' E 139°50'0 0.0
2015-Jul-01 21:26N 35°25' E 139°50'0 0.0
2015-Jul-01 20:32N 35°25' E 139°50'0 0.0
2015-Jul-01 19:32N 35°25' E 139°50'0 0.0
2015-Jul-01 18:17N 35°25' E 139°50'0 0.0
2015-Jul-01 17:29N 35°25' E 139°50'0 0.0
2015-Jul-01 16:26N 35°25' E 139°50'0 0.0
2015-Jul-01 15:32N 35°25' E 139°50'0 0.0
2015-Jul-01 14:32N 35°25' E 139°50'0 0.0
2015-Jul-01 13:33N 35°25' E 139°50'0 0.0
2015-Jul-01 12:32N 35°25' E 139°50'0 0.0
2015-Jul-01 11:32N 35°25' E 139°50'0 0.0
2015-Jul-01 10:32N 35°25' E 139°50'0 0.0
2015-Jul-01 09:26N 35°25' E 139°50'0 0.0
2015-Jul-01 08:32N 35°25' E 139°50'0 0.1
2015-Jul-01 07:33N 35°25' E 139°50'0 0.0
2015-Jul-01 06:33N 35°25' E 139°50'0 0.0
2015-Jul-01 05:32N 35°25' E 139°50'0 0.0
2015-Jul-01 04:33N 35°25' E 139°50'0 0.1
2015-Jul-01 03:33N 35°25' E 139°50'0 0.1
2015-Jul-01 02:33N 35°25' E 139°50'0 0.1
2015-Jul-01 01:33N 35°25' E 139°50'0 0.0
2015-Jul-01 00:33N 35°25' E 139°50'0 0.0
2015-Jun-30 23:31N 35°25' E 139°50'0 0.0
2015-Jun-30 22:31N 35°25' E 139°50'0 0.0
2015-Jun-30 21:31N 35°25' E 139°50'3 3.4
2015-Jun-30 20:33N 35°22' E 139°51'0 0.4
2015-Jun-30 19:33N 35°22' E 139°51'0 0.0
2015-Jun-30 18:34N 35°22' E 139°51'0 0.0
2015-Jun-30 17:33N 35°22' E 139°51'0 0.0
2015-Jun-30 16:34N 35°22' E 139°51'0 0.0
2015-Jun-30 15:34N 35°22' E 139°51'0 0.0
2015-Jun-30 14:34N 35°22' E 139°51'0 0.0
2015-Jun-30 13:34N 35°22' E 139°51'2 2.1
2015-Jun-30 12:34N 35°23' E 139°49'0 0.0
2015-Jun-30 11:33N 35°23' E 139°49'0 0.0
2015-Jun-30 10:34N 35°23' E 139°49'0 0.0
2015-Jun-30 09:34N 35°23' E 139°49'0 0.0
2015-Jun-30 08:34N 35°23' E 139°49'0 0.0
2015-Jun-30 07:34N 35°22' E 139°49'0 0.0
2015-Jun-30 06:34N 35°22' E 139°49'0 0.0
2015-Jun-30 05:34N 35°22' E 139°49'0 0.0
2015-Jun-30 04:33N 35°22' E 139°49'9 9.1
2015-Jun-30 03:34N 35°31' E 139°54'1111.0
2015-Jun-30 02:33N 35°37' E 140°05'0 0.1
2015-Jun-30 01:16N 35°37' E 140°05'0 0.0
2015-Jun-30 00:22N 35°37' E 140°05'0 0.0
2015-Jun-29 23:28N 35°37' E 140°05'1 1.3
2015-Jun-29 22:33N 35°36' E 140°05'3 2.7
2015-Jun-29 21:17N 35°35' E 140°01'0 0.0
2015-Jun-29 20:29N 35°35' E 140°01'0 0.0
2015-Jun-29 19:29N 35°35' E 140°01'0 0.0
2015-Jun-29 18:29N 35°35' E 140°01'0 0.0
2015-Jun-29 17:29N 35°35' E 140°01'0 0.0
2015-Jun-29 16:29N 35°35' E 140°01'0 0.0
2015-Jun-29 15:23N 35°35' E 140°01'0 0.0
2015-Jun-29 14:17N 35°35' E 140°01'0 0.0
2015-Jun-29 13:05N 35°35' E 140°01'0 0.1
2015-Jun-29 12:29N 35°35' E 140°01'0 0.0
2015-Jun-29 11:05N 35°35' E 140°01'0 0.1
2015-Jun-29 10:17N 35°35' E 140°01'0 0.1
2015-Jun-29 09:29N 35°35' E 140°01'0 0.1
2015-Jun-29 08:29N 35°35' E 140°01'0 0.1
2015-Jun-29 07:29N 35°35' E 140°01'0 0.0
2015-Jun-29 06:29N 35°35' E 140°01'0 0.0
2015-Jun-29 05:29N 35°35' E 140°01'0 0.0
2015-Jun-29 04:23N 35°35' E 140°01'0 0.0
2015-Jun-29 03:29N 35°35' E 140°01'8 8.3
2015-Jun-29 02:33N 35°35' E 139°51'4 3.7
2015-Jun-29 01:33N 35°38' E 139°48'0 0.0
2015-Jun-29 00:33N 35°38' E 139°48'0 0.0
2015-Jun-28 23:33N 35°38' E 139°48'6 5.5
2015-Jun-28 22:33N 35°33' E 139°52'1010.2
2015-Jun-28 21:34N 35°24' E 139°46'10 9.6
2015-Jun-28 20:34N 35°14' E 139°47'1010.3
2015-Jun-28 19:33N 35°05' E 139°42'1111.2
2015-Jun-28 18:32N 34°58' E 139°32'230 9.6
2015-Jun-27 18:33N 34°03' E 135°00'1211.8
2015-Jun-27 17:32N 34°15' E 134°59'1211.8
2015-Jun-27 16:33N 34°27' E 135°01'10 9.8
2015-Jun-27 15:31N 34°37' E 134°59'  
Track history (hours):
 
Tides and Currents Weather Stations Pressure Air Temp Water Temp Dewpoint Dewpoint Depression Visibility Wind Speed Wind Dir Waves Ship Positions

Udo Maru

Last reported at 2015-Jul-04 18:33 UTC. Time now 2015-Jul-04 18:58 UTC.
Position N 34°35' E 135°27'.

Length 87 m; draft 4.9 m.

Type: Ship (hazmat cat A). MMSI: 431600499.

Date/timePositionNaut miles runAvg speedWind from/ knotsBaromVisibWave heightAir tempDewpointWater temp
2015-Jul-04 18:33N 34°35' E 135°27'7 6.7
2015-Jul-04 17:33N 34°34' E 135°19'1111.2
2015-Jul-04 16:33N 34°26' E 135°10'1110.6
2015-Jul-04 15:29N 34°18' E 134°60'1111.7
2015-Jul-04 14:33N 34°07' E 135°00'  
2015-Jul-02 04:33N 34°59' E 139°32'1010.4
2015-Jul-02 03:33N 35°06' E 139°41'1010.0
2015-Jul-02 02:34N 35°15' E 139°46'1110.6
2015-Jul-02 01:33N 35°25' E 139°43'5 4.7
2015-Jul-02 00:26N 35°25' E 139°50'0 0.0
2015-Jul-01 23:32N 35°25' E 139°50'0 0.0
2015-Jul-01 22:32N 35°25' E 139°50'0 0.0
2015-Jul-01 21:26N 35°25' E 139°50'0 0.0
2015-Jul-01 20:32N 35°25' E 139°50'0 0.0
2015-Jul-01 19:32N 35°25' E 139°50'0 0.0
2015-Jul-01 18:17N 35°25' E 139°50'0 0.0
2015-Jul-01 17:29N 35°25' E 139°50'0 0.0
2015-Jul-01 16:26N 35°25' E 139°50'0 0.0
2015-Jul-01 15:32N 35°25' E 139°50'0 0.0
2015-Jul-01 14:32N 35°25' E 139°50'0 0.0
2015-Jul-01 13:33N 35°25' E 139°50'0 0.0
2015-Jul-01 12:32N 35°25' E 139°50'0 0.0
2015-Jul-01 11:32N 35°25' E 139°50'0 0.0
2015-Jul-01 10:32N 35°25' E 139°50'0 0.0
2015-Jul-01 09:26N 35°25' E 139°50'0 0.0
2015-Jul-01 08:32N 35°25' E 139°50'0 0.1
2015-Jul-01 07:33N 35°25' E 139°50'0 0.0
2015-Jul-01 06:33N 35°25' E 139°50'0 0.0
2015-Jul-01 05:32N 35°25' E 139°50'0 0.0
2015-Jul-01 04:33N 35°25' E 139°50'0 0.1
2015-Jul-01 03:33N 35°25' E 139°50'0 0.1
2015-Jul-01 02:33N 35°25' E 139°50'0 0.1
2015-Jul-01 01:33N 35°25' E 139°50'0 0.0
2015-Jul-01 00:33N 35°25' E 139°50'0 0.0
2015-Jun-30 23:31N 35°25' E 139°50'0 0.0
2015-Jun-30 22:31N 35°25' E 139°50'0 0.0
2015-Jun-30 21:31N 35°25' E 139°50'3 3.4
2015-Jun-30 20:33N 35°22' E 139°51'0 0.4
2015-Jun-30 19:33N 35°22' E 139°51'0 0.0
2015-Jun-30 18:34N 35°22' E 139°51'0 0.0
2015-Jun-30 17:33N 35°22' E 139°51'0 0.0
2015-Jun-30 16:34N 35°22' E 139°51'0 0.0
2015-Jun-30 15:34N 35°22' E 139°51'0 0.0
2015-Jun-30 14:34N 35°22' E 139°51'0 0.0
2015-Jun-30 13:34N 35°22' E 139°51'2 2.1
2015-Jun-30 12:34N 35°23' E 139°49'0 0.0
2015-Jun-30 11:33N 35°23' E 139°49'0 0.0
2015-Jun-30 10:34N 35°23' E 139°49'0 0.0
2015-Jun-30 09:34N 35°23' E 139°49'0 0.0
2015-Jun-30 08:34N 35°23' E 139°49'0 0.0
2015-Jun-30 07:34N 35°22' E 139°49'0 0.0
2015-Jun-30 06:34N 35°22' E 139°49'0 0.0
2015-Jun-30 05:34N 35°22' E 139°49'0 0.0
2015-Jun-30 04:33N 35°22' E 139°49'9 9.1
2015-Jun-30 03:34N 35°31' E 139°54'1111.0
2015-Jun-30 02:33N 35°37' E 140°05'0 0.1
2015-Jun-30 01:16N 35°37' E 140°05'0 0.0
2015-Jun-30 00:22N 35°37' E 140°05'0 0.0
2015-Jun-29 23:28N 35°37' E 140°05'1 1.3
2015-Jun-29 22:33N 35°36' E 140°05'3 2.7
2015-Jun-29 21:17N 35°35' E 140°01'0 0.0
2015-Jun-29 20:29N 35°35' E 140°01'0 0.0
2015-Jun-29 19:29N 35°35' E 140°01'0 0.0
2015-Jun-29 18:29N 35°35' E 140°01'0 0.0
2015-Jun-29 17:29N 35°35' E 140°01'0 0.0
2015-Jun-29 16:29N 35°35' E 140°01'0 0.0
2015-Jun-29 15:23N 35°35' E 140°01'0 0.0
2015-Jun-29 14:17N 35°35' E 140°01'0 0.0
2015-Jun-29 13:05N 35°35' E 140°01'0 0.1
2015-Jun-29 12:29N 35°35' E 140°01'0 0.0
2015-Jun-29 11:05N 35°35' E 140°01'0 0.1
2015-Jun-29 10:17N 35°35' E 140°01'0 0.1
2015-Jun-29 09:29N 35°35' E 140°01'0 0.1
2015-Jun-29 08:29N 35°35' E 140°01'0 0.1
2015-Jun-29 07:29N 35°35' E 140°01'0 0.0
2015-Jun-29 06:29N 35°35' E 140°01'0 0.0
2015-Jun-29 05:29N 35°35' E 140°01'0 0.0
2015-Jun-29 04:23N 35°35' E 140°01'0 0.0
2015-Jun-29 03:29N 35°35' E 140°01'8 8.3
2015-Jun-29 02:33N 35°35' E 139°51'4 3.7
2015-Jun-29 01:33N 35°38' E 139°48'0 0.0
2015-Jun-29 00:33N 35°38' E 139°48'0 0.0
2015-Jun-28 23:33N 35°38' E 139°48'6 5.5
2015-Jun-28 22:33N 35°33' E 139°52'1010.2
2015-Jun-28 21:34N 35°24' E 139°46'10 9.6
2015-Jun-28 20:34N 35°14' E 139°47'1010.3
2015-Jun-28 19:33N 35°05' E 139°42'1111.2
2015-Jun-28 18:32N 34°58' E 139°32'230 9.6
2015-Jun-27 18:33N 34°03' E 135°00'1211.8
2015-Jun-27 17:32N 34°15' E 134°59'1211.8
2015-Jun-27 16:33N 34°27' E 135°01'10 9.8
2015-Jun-27 15:31N 34°37' E 134°59'  

Dump ship's entire track history